sensor_id;sensor_type;location;lat;lon;timestamp;temperature;humidity
780;DHT22;373;49.342;8.146;2023-05-10T00:01:45;16.10;75.40
780;DHT22;373;49.342;8.146;2023-05-10T00:04:12;16.10;28.00
780;DHT22;373;49.342;8.146;2023-05-10T00:06:41;16.40;16.90
780;DHT22;373;49.342;8.146;2023-05-10T00:09:08;16.40;6.20
780;DHT22;373;49.342;8.146;2023-05-10T00:11:35;16.70;1.00
780;DHT22;373;49.342;8.146;2023-05-10T00:14:02;16.10;1.00
780;DHT22;373;49.342;8.146;2023-05-10T00:16:29;16.00;26.20
780;DHT22;373;49.342;8.146;2023-05-10T00:19:00;16.10;7.10
780;DHT22;373;49.342;8.146;2023-05-10T00:21:27;15.60;63.10
780;DHT22;373;49.342;8.146;2023-05-10T00:23:55;14.90;99.90
780;DHT22;373;49.342;8.146;2023-05-10T00:26:23;14.60;99.90
780;DHT22;373;49.342;8.146;2023-05-10T00:28:53;14.50;99.90
780;DHT22;373;49.342;8.146;2023-05-10T00:31:20;14.90;99.90
780;DHT22;373;49.342;8.146;2023-05-10T00:33:47;15.00;99.90
780;DHT22;373;49.342;8.146;2023-05-10T00:36:14;15.00;99.90
780;DHT22;373;49.342;8.146;2023-05-10T00:38:41;15.10;99.90
780;DHT22;373;49.342;8.146;2023-05-10T00:41:10;15.00;93.10
780;DHT22;373;49.342;8.146;2023-05-10T00:43:39;14.90;90.60
780;DHT22;373;49.342;8.146;2023-05-10T00:46:06;15.10;99.90
780;DHT22;373;49.342;8.146;2023-05-10T00:48:34;15.20;99.90
780;DHT22;373;49.342;8.146;2023-05-10T00:51:02;15.60;71.00
780;DHT22;373;49.342;8.146;2023-05-10T00:53:31;15.50;11.80
780;DHT22;373;49.342;8.146;2023-05-10T00:55:58;15.60;17.80
780;DHT22;373;49.342;8.146;2023-05-10T00:58:28;15.60;25.10
780;DHT22;373;49.342;8.146;2023-05-10T01:00:56;15.80;11.40
780;DHT22;373;49.342;8.146;2023-05-10T01:03:25;15.90;17.90
780;DHT22;373;49.342;8.146;2023-05-10T01:05:52;15.90;62.40
780;DHT22;373;49.342;8.146;2023-05-10T01:08:19;15.80;1.00
780;DHT22;373;49.342;8.146;2023-05-10T01:10:46;15.70;1.00
780;DHT22;373;49.342;8.146;2023-05-10T01:13:23;15.90;3.70
780;DHT22;373;49.342;8.146;2023-05-10T01:15:54;16.20;1.00
780;DHT22;373;49.342;8.146;2023-05-10T01:18:21;16.30;1.00
780;DHT22;373;49.342;8.146;2023-05-10T01:20:55;16.20;1.00
780;DHT22;373;49.342;8.146;2023-05-10T01:23:45;16.20;1.00
780;DHT22;373;49.342;8.146;2023-05-10T01:26:38;16.40;1.00
780;DHT22;373;49.342;8.146;2023-05-10T01:29:18;16.60;1.00
780;DHT22;373;49.342;8.146;2023-05-10T01:32:09;16.80;1.00
780;DHT22;373;49.342;8.146;2023-05-10T01:34:44;16.90;1.00
780;DHT22;373;49.342;8.146;2023-05-10T01:37:17;16.90;1.00
780;DHT22;373;49.342;8.146;2023-05-10T01:39:49;16.30;1.00
780;DHT22;373;49.342;8.146;2023-05-10T01:42:21;15.90;1.00
780;DHT22;373;49.342;8.146;2023-05-10T01:44:58;15.80;1.00
780;DHT22;373;49.342;8.146;2023-05-10T01:47:32;15.50;47.40
780;DHT22;373;49.342;8.146;2023-05-10T01:50:03;15.70;48.60
780;DHT22;373;49.342;8.146;2023-05-10T01:52:35;15.70;48.60
780;DHT22;373;49.342;8.146;2023-05-10T01:55:06;15.80;39.50
780;DHT22;373;49.342;8.146;2023-05-10T01:57:37;16.00;1.00
780;DHT22;373;49.342;8.146;2023-05-10T02:00:08;16.20;1.00
780;DHT22;373;49.342;8.146;2023-05-10T02:02:45;16.20;1.00
780;DHT22;373;49.342;8.146;2023-05-10T02:05:13;16.00;1.00
780;DHT22;373;49.342;8.146;2023-05-10T02:07:42;15.90;1.00
780;DHT22;373;49.342;8.146;2023-05-10T02:10:11;15.90;4.20
780;DHT22;373;49.342;8.146;2023-05-10T02:12:41;15.90;2.00
780;DHT22;373;49.342;8.146;2023-05-10T02:15:11;15.80;3.20
780;DHT22;373;49.342;8.146;2023-05-10T02:17:40;15.60;1.00
780;DHT22;373;49.342;8.146;2023-05-10T02:20:11;15.70;19.30
780;DHT22;373;49.342;8.146;2023-05-10T02:22:40;15.50;21.50
780;DHT22;373;49.342;8.146;2023-05-10T02:25:08;15.50;1.00
780;DHT22;373;49.342;8.146;2023-05-10T02:27:37;15.60;30.60
780;DHT22;373;49.342;8.146;2023-05-10T02:30:08;15.90;13.60
780;DHT22;373;49.342;8.146;2023-05-10T02:32:37;15.90;1.00
780;DHT22;373;49.342;8.146;2023-05-10T02:35:06;15.80;1.00
780;DHT22;373;49.342;8.146;2023-05-10T02:37:36;15.80;1.00
780;DHT22;373;49.342;8.146;2023-05-10T02:40:05;15.50;1.00
780;DHT22;373;49.342;8.146;2023-05-10T02:42:35;15.20;51.80
780;DHT22;373;49.342;8.146;2023-05-10T02:45:07;15.40;38.20
780;DHT22;373;49.342;8.146;2023-05-10T02:47:35;15.50;42.60
780;DHT22;373;49.342;8.146;2023-05-10T02:50:03;15.50;1.00
780;DHT22;373;49.342;8.146;2023-05-10T02:52:40;15.60;12.20
780;DHT22;373;49.342;8.146;2023-05-10T02:55:09;15.70;1.00
780;DHT22;373;49.342;8.146;2023-05-10T02:57:42;15.70;1.00
780;DHT22;373;49.342;8.146;2023-05-10T03:00:11;15.50;1.00
780;DHT22;373;49.342;8.146;2023-05-10T03:02:38;15.30;6.00
780;DHT22;373;49.342;8.146;2023-05-10T03:05:05;15.40;11.60
780;DHT22;373;49.342;8.146;2023-05-10T03:07:33;15.30;1.00
780;DHT22;373;49.342;8.146;2023-05-10T03:10:02;15.30;1.00
780;DHT22;373;49.342;8.146;2023-05-10T03:12:38;15.50;6.00
780;DHT22;373;49.342;8.146;2023-05-10T03:15:13;15.70;1.00
780;DHT22;373;49.342;8.146;2023-05-10T03:17:48;15.70;1.00
780;DHT22;373;49.342;8.146;2023-05-10T03:20:22;16.00;1.00
780;DHT22;373;49.342;8.146;2023-05-10T03:22:55;16.30;1.00
780;DHT22;373;49.342;8.146;2023-05-10T03:25:25;16.50;1.00
780;DHT22;373;49.342;8.146;2023-05-10T03:27:53;16.20;1.00
780;DHT22;373;49.342;8.146;2023-05-10T03:30:21;16.30;1.00
780;DHT22;373;49.342;8.146;2023-05-10T03:32:49;16.10;1.00
780;DHT22;373;49.342;8.146;2023-05-10T03:35:17;16.10;1.00
780;DHT22;373;49.342;8.146;2023-05-10T03:37:44;15.90;1.00
780;DHT22;373;49.342;8.146;2023-05-10T03:40:11;15.90;1.00
780;DHT22;373;49.342;8.146;2023-05-10T03:42:42;15.60;1.00
780;DHT22;373;49.342;8.146;2023-05-10T03:45:10;15.60;1.00
780;DHT22;373;49.342;8.146;2023-05-10T03:47:37;15.60;1.00
780;DHT22;373;49.342;8.146;2023-05-10T03:50:06;16.00;1.00
780;DHT22;373;49.342;8.146;2023-05-10T03:52:33;15.90;1.00
780;DHT22;373;49.342;8.146;2023-05-10T03:55:00;15.70;1.00
780;DHT22;373;49.342;8.146;2023-05-10T03:57:28;15.70;1.00
780;DHT22;373;49.342;8.146;2023-05-10T03:59:57;15.70;1.00
780;DHT22;373;49.342;8.146;2023-05-10T04:02:24;15.50;31.50
780;DHT22;373;49.342;8.146;2023-05-10T04:04:51;15.40;1.00
780;DHT22;373;49.342;8.146;2023-05-10T04:07:18;15.30;37.50
780;DHT22;373;49.342;8.146;2023-05-10T04:09:46;15.20;12.30
780;DHT22;373;49.342;8.146;2023-05-10T04:12:13;15.30;22.90
780;DHT22;373;49.342;8.146;2023-05-10T04:14:40;15.10;9.30
780;DHT22;373;49.342;8.146;2023-05-10T04:17:09;15.10;18.80
780;DHT22;373;49.342;8.146;2023-05-10T04:19:36;15.10;20.50
780;DHT22;373;49.342;8.146;2023-05-10T04:22:03;15.20;12.50
780;DHT22;373;49.342;8.146;2023-05-10T04:24:30;15.40;9.80
780;DHT22;373;49.342;8.146;2023-05-10T04:26:57;15.40;4.00
780;DHT22;373;49.342;8.146;2023-05-10T04:29:24;15.20;10.30
780;DHT22;373;49.342;8.146;2023-05-10T04:31:56;15.50;20.40
780;DHT22;373;49.342;8.146;2023-05-10T04:34:24;15.40;14.30
780;DHT22;373;49.342;8.146;2023-05-10T04:36:51;15.60;1.00
780;DHT22;373;49.342;8.146;2023-05-10T04:39:19;15.70;1.00
780;DHT22;373;49.342;8.146;2023-05-10T04:41:46;15.80;1.00
780;DHT22;373;49.342;8.146;2023-05-10T04:44:13;15.70;1.00
780;DHT22;373;49.342;8.146;2023-05-10T04:46:40;15.90;1.00
780;DHT22;373;49.342;8.146;2023-05-10T04:49:07;15.60;1.00
780;DHT22;373;49.342;8.146;2023-05-10T04:51:35;15.90;1.00
780;DHT22;373;49.342;8.146;2023-05-10T04:54:02;15.80;9.70
780;DHT22;373;49.342;8.146;2023-05-10T04:56:30;15.70;1.00
780;DHT22;373;49.342;8.146;2023-05-10T04:58:57;15.80;2.80
780;DHT22;373;49.342;8.146;2023-05-10T05:01:24;15.70;1.00
780;DHT22;373;49.342;8.146;2023-05-10T05:03:51;15.40;1.00
780;DHT22;373;49.342;8.146;2023-05-10T05:06:18;15.50;36.60
780;DHT22;373;49.342;8.146;2023-05-10T05:09:07;15.60;56.10
780;DHT22;373;49.342;8.146;2023-05-10T05:11:35;15.80;23.20
780;DHT22;373;49.342;8.146;2023-05-10T05:14:02;15.70;1.00
780;DHT22;373;49.342;8.146;2023-05-10T05:16:30;15.80;1.00
780;DHT22;373;49.342;8.146;2023-05-10T05:18:57;15.60;1.00
780;DHT22;373;49.342;8.146;2023-05-10T05:21:24;15.30;5.90
780;DHT22;373;49.342;8.146;2023-05-10T05:23:52;15.50;48.70
780;DHT22;373;49.342;8.146;2023-05-10T05:26:21;15.80;42.50
780;DHT22;373;49.342;8.146;2023-05-10T05:28:48;16.00;1.00
780;DHT22;373;49.342;8.146;2023-05-10T05:31:18;15.90;1.00
780;DHT22;373;49.342;8.146;2023-05-10T05:33:45;15.80;1.00
780;DHT22;373;49.342;8.146;2023-05-10T05:36:12;15.80;1.00
780;DHT22;373;49.342;8.146;2023-05-10T05:38:39;15.80;1.00
780;DHT22;373;49.342;8.146;2023-05-10T05:41:06;15.90;1.00
780;DHT22;373;49.342;8.146;2023-05-10T05:43:34;16.00;1.00
780;DHT22;373;49.342;8.146;2023-05-10T05:46:01;16.20;1.00
780;DHT22;373;49.342;8.146;2023-05-10T05:48:29;16.40;1.00
780;DHT22;373;49.342;8.146;2023-05-10T05:50:57;16.40;1.00
780;DHT22;373;49.342;8.146;2023-05-10T05:53:24;16.50;1.00
780;DHT22;373;49.342;8.146;2023-05-10T05:55:52;16.20;1.00
780;DHT22;373;49.342;8.146;2023-05-10T05:58:19;16.30;1.00
780;DHT22;373;49.342;8.146;2023-05-10T06:00:50;16.50;1.00
780;DHT22;373;49.342;8.146;2023-05-10T06:03:18;16.60;1.00
780;DHT22;373;49.342;8.146;2023-05-10T06:05:50;16.70;1.00
780;DHT22;373;49.342;8.146;2023-05-10T06:08:17;16.70;1.00
780;DHT22;373;49.342;8.146;2023-05-10T06:10:50;16.90;1.00
780;DHT22;373;49.342;8.146;2023-05-10T06:13:26;17.20;1.00
780;DHT22;373;49.342;8.146;2023-05-10T06:15:59;17.50;1.00
780;DHT22;373;49.342;8.146;2023-05-10T06:18:26;17.20;99.90
780;DHT22;373;49.342;8.146;2023-05-10T06:20:55;16.90;1.00
780;DHT22;373;49.342;8.146;2023-05-10T06:23:23;16.70;1.00
780;DHT22;373;49.342;8.146;2023-05-10T06:25:53;16.30;1.00
780;DHT22;373;49.342;8.146;2023-05-10T06:28:20;16.60;1.00
780;DHT22;373;49.342;8.146;2023-05-10T06:30:47;16.80;1.00
780;DHT22;373;49.342;8.146;2023-05-10T06:33:16;16.90;1.00
780;DHT22;373;49.342;8.146;2023-05-10T06:35:43;16.80;1.00
780;DHT22;373;49.342;8.146;2023-05-10T06:38:10;16.70;1.00
780;DHT22;373;49.342;8.146;2023-05-10T06:40:41;16.70;1.00
780;DHT22;373;49.342;8.146;2023-05-10T06:43:09;16.60;1.00
780;DHT22;373;49.342;8.146;2023-05-10T06:45:36;16.70;1.00
780;DHT22;373;49.342;8.146;2023-05-10T06:48:04;16.90;1.00
780;DHT22;373;49.342;8.146;2023-05-10T06:50:33;16.90;1.00
780;DHT22;373;49.342;8.146;2023-05-10T06:53:00;17.30;99.90
780;DHT22;373;49.342;8.146;2023-05-10T06:55:28;17.40;98.50
780;DHT22;373;49.342;8.146;2023-05-10T06:57:58;17.30;99.90
780;DHT22;373;49.342;8.146;2023-05-10T07:00:26;17.50;1.00
780;DHT22;373;49.342;8.146;2023-05-10T07:02:53;17.90;1.00
780;DHT22;373;49.342;8.146;2023-05-10T07:05:21;18.30;1.00
780;DHT22;373;49.342;8.146;2023-05-10T07:07:50;17.90;99.90
780;DHT22;373;49.342;8.146;2023-05-10T07:10:18;17.90;99.90
780;DHT22;373;49.342;8.146;2023-05-10T07:12:45;17.60;1.00
780;DHT22;373;49.342;8.146;2023-05-10T07:15:12;17.70;99.90
780;DHT22;373;49.342;8.146;2023-05-10T07:17:39;17.90;99.90
780;DHT22;373;49.342;8.146;2023-05-10T07:20:08;18.00;1.00
780;DHT22;373;49.342;8.146;2023-05-10T07:22:35;18.10;99.90
780;DHT22;373;49.342;8.146;2023-05-10T07:25:05;18.00;99.90
780;DHT22;373;49.342;8.146;2023-05-10T07:27:32;17.40;1.00
780;DHT22;373;49.342;8.146;2023-05-10T07:30:00;17.50;99.90
780;DHT22;373;49.342;8.146;2023-05-10T07:32:28;17.60;1.00
780;DHT22;373;49.342;8.146;2023-05-10T07:34:56;17.90;99.90
780;DHT22;373;49.342;8.146;2023-05-10T07:37:23;18.40;1.00
780;DHT22;373;49.342;8.146;2023-05-10T07:39:51;18.50;1.00
780;DHT22;373;49.342;8.146;2023-05-10T07:42:20;18.60;99.90
780;DHT22;373;49.342;8.146;2023-05-10T07:44:48;18.40;99.90
780;DHT22;373;49.342;8.146;2023-05-10T07:47:15;17.80;91.90
780;DHT22;373;49.342;8.146;2023-05-10T07:49:43;17.40;1.00
780;DHT22;373;49.342;8.146;2023-05-10T07:52:10;17.70;1.00
780;DHT22;373;49.342;8.146;2023-05-10T07:54:38;17.70;1.00
780;DHT22;373;49.342;8.146;2023-05-10T07:57:05;17.10;99.90
780;DHT22;373;49.342;8.146;2023-05-10T07:59:34;17.10;99.90
780;DHT22;373;49.342;8.146;2023-05-10T08:02:02;17.40;99.90
780;DHT22;373;49.342;8.146;2023-05-10T08:04:29;17.30;1.00
780;DHT22;373;49.342;8.146;2023-05-10T08:06:57;17.40;99.90
780;DHT22;373;49.342;8.146;2023-05-10T08:09:28;17.60;1.00
780;DHT22;373;49.342;8.146;2023-05-10T08:11:55;17.70;99.90
780;DHT22;373;49.342;8.146;2023-05-10T08:14:24;18.00;99.90
780;DHT22;373;49.342;8.146;2023-05-10T08:17:04;18.30;99.90
780;DHT22;373;49.342;8.146;2023-05-10T08:19:34;18.50;1.00
780;DHT22;373;49.342;8.146;2023-05-10T08:22:03;18.20;39.80
780;DHT22;373;49.342;8.146;2023-05-10T08:24:31;18.20;77.20
780;DHT22;373;49.342;8.146;2023-05-10T08:27:00;18.20;99.90
780;DHT22;373;49.342;8.146;2023-05-10T08:29:28;17.90;99.90
780;DHT22;373;49.342;8.146;2023-05-10T08:31:57;17.70;1.00
780;DHT22;373;49.342;8.146;2023-05-10T08:34:25;17.40;1.00
780;DHT22;373;49.342;8.146;2023-05-10T08:36:53;17.10;1.00
780;DHT22;373;49.342;8.146;2023-05-10T08:39:20;17.20;1.00
780;DHT22;373;49.342;8.146;2023-05-10T08:41:51;17.30;1.00
780;DHT22;373;49.342;8.146;2023-05-10T08:44:19;17.80;1.00
780;DHT22;373;49.342;8.146;2023-05-10T08:46:53;17.90;1.00
780;DHT22;373;49.342;8.146;2023-05-10T08:49:33;17.90;99.90
780;DHT22;373;49.342;8.146;2023-05-10T08:52:19;17.90;99.90
780;DHT22;373;49.342;8.146;2023-05-10T08:54:47;18.00;99.90
780;DHT22;373;49.342;8.146;2023-05-10T08:57:15;18.30;1.00
780;DHT22;373;49.342;8.146;2023-05-10T08:59:44;18.60;99.90
780;DHT22;373;49.342;8.146;2023-05-10T09:02:13;18.70;1.00
780;DHT22;373;49.342;8.146;2023-05-10T09:04:42;18.40;1.00
780;DHT22;373;49.342;8.146;2023-05-10T09:07:10;18.10;99.90
780;DHT22;373;49.342;8.146;2023-05-10T09:09:38;17.80;1.00
780;DHT22;373;49.342;8.146;2023-05-10T09:12:13;17.40;1.00
780;DHT22;373;49.342;8.146;2023-05-10T09:14:42;17.40;1.00
780;DHT22;373;49.342;8.146;2023-05-10T09:17:11;17.40;1.00
780;DHT22;373;49.342;8.146;2023-05-10T09:19:39;17.30;99.90
780;DHT22;373;49.342;8.146;2023-05-10T09:22:08;17.20;1.00
780;DHT22;373;49.342;8.146;2023-05-10T09:24:36;17.40;99.90
780;DHT22;373;49.342;8.146;2023-05-10T09:27:08;17.10;1.00
780;DHT22;373;49.342;8.146;2023-05-10T09:29:42;16.80;1.00
780;DHT22;373;49.342;8.146;2023-05-10T09:32:09;16.80;1.00
780;DHT22;373;49.342;8.146;2023-05-10T09:34:37;16.50;99.90
780;DHT22;373;49.342;8.146;2023-05-10T09:37:08;16.30;1.00
780;DHT22;373;49.342;8.146;2023-05-10T09:39:37;16.30;99.90
780;DHT22;373;49.342;8.146;2023-05-10T09:42:06;16.60;62.40
780;DHT22;373;49.342;8.146;2023-05-10T09:44:34;16.90;1.00
780;DHT22;373;49.342;8.146;2023-05-10T09:47:03;17.10;99.90
780;DHT22;373;49.342;8.146;2023-05-10T09:49:31;17.40;1.00
780;DHT22;373;49.342;8.146;2023-05-10T09:52:02;17.70;1.00
780;DHT22;373;49.342;8.146;2023-05-10T09:54:33;18.40;35.60
780;DHT22;373;49.342;8.146;2023-05-10T09:57:01;18.90;1.00
780;DHT22;373;49.342;8.146;2023-05-10T09:59:29;19.00;29.40
780;DHT22;373;49.342;8.146;2023-05-10T10:01:57;19.00;1.00
780;DHT22;373;49.342;8.146;2023-05-10T10:04:26;19.00;1.00
780;DHT22;373;49.342;8.146;2023-05-10T10:07:01;18.90;1.00
780;DHT22;373;49.342;8.146;2023-05-10T10:09:31;18.70;12.90
780;DHT22;373;49.342;8.146;2023-05-10T10:11:59;18.50;75.40
780;DHT22;373;49.342;8.146;2023-05-10T10:14:29;18.30;99.90
780;DHT22;373;49.342;8.146;2023-05-10T10:16:57;18.30;99.90
780;DHT22;373;49.342;8.146;2023-05-10T10:19:27;18.40;1.00
780;DHT22;373;49.342;8.146;2023-05-10T10:21:54;18.60;99.90
780;DHT22;373;49.342;8.146;2023-05-10T10:24:22;18.60;99.90
780;DHT22;373;49.342;8.146;2023-05-10T10:26:52;18.80;99.90
780;DHT22;373;49.342;8.146;2023-05-10T10:29:33;18.30;1.00
780;DHT22;373;49.342;8.146;2023-05-10T10:32:09;18.40;99.90
780;DHT22;373;49.342;8.146;2023-05-10T10:34:39;18.50;15.60
780;DHT22;373;49.342;8.146;2023-05-10T10:37:07;18.60;1.00
780;DHT22;373;49.342;8.146;2023-05-10T10:39:34;18.70;1.00
780;DHT22;373;49.342;8.146;2023-05-10T10:42:04;18.80;1.00
780;DHT22;373;49.342;8.146;2023-05-10T10:44:36;19.00;1.00
780;DHT22;373;49.342;8.146;2023-05-10T10:47:22;19.10;1.00
780;DHT22;373;49.342;8.146;2023-05-10T10:50:04;19.50;1.00
780;DHT22;373;49.342;8.146;2023-05-10T10:52:33;19.80;99.90
780;DHT22;373;49.342;8.146;2023-05-10T10:55:03;19.90;99.90
780;DHT22;373;49.342;8.146;2023-05-10T10:57:42;20.10;99.90
780;DHT22;373;49.342;8.146;2023-05-10T11:00:24;20.30;99.90
780;DHT22;373;49.342;8.146;2023-05-10T11:02:52;20.00;99.90
780;DHT22;373;49.342;8.146;2023-05-10T11:05:39;19.70;1.00
780;DHT22;373;49.342;8.146;2023-05-10T11:08:15;19.30;1.00
780;DHT22;373;49.342;8.146;2023-05-10T11:10:51;19.20;1.00
780;DHT22;373;49.342;8.146;2023-05-10T11:13:28;19.30;1.00
780;DHT22;373;49.342;8.146;2023-05-10T11:15:56;19.00;1.00
780;DHT22;373;49.342;8.146;2023-05-10T11:18:26;19.10;1.00
780;DHT22;373;49.342;8.146;2023-05-10T11:20:57;19.00;1.00
780;DHT22;373;49.342;8.146;2023-05-10T11:23:30;18.60;1.00
780;DHT22;373;49.342;8.146;2023-05-10T11:25:58;18.30;1.00
780;DHT22;373;49.342;8.146;2023-05-10T11:28:27;18.40;1.00
780;DHT22;373;49.342;8.146;2023-05-10T11:30:55;18.40;1.00
780;DHT22;373;49.342;8.146;2023-05-10T11:33:22;18.70;1.00
780;DHT22;373;49.342;8.146;2023-05-10T11:35:49;18.50;1.00
780;DHT22;373;49.342;8.146;2023-05-10T11:38:16;18.50;1.00
780;DHT22;373;49.342;8.146;2023-05-10T11:40:44;18.40;1.00
780;DHT22;373;49.342;8.146;2023-05-10T11:43:11;18.60;1.00
780;DHT22;373;49.342;8.146;2023-05-10T11:45:42;18.10;1.00
780;DHT22;373;49.342;8.146;2023-05-10T11:48:09;17.90;99.90
780;DHT22;373;49.342;8.146;2023-05-10T11:50:37;17.80;99.90
780;DHT22;373;49.342;8.146;2023-05-10T11:53:04;17.80;1.00
780;DHT22;373;49.342;8.146;2023-05-10T11:55:33;18.00;1.00
780;DHT22;373;49.342;8.146;2023-05-10T11:58:01;18.40;1.00
780;DHT22;373;49.342;8.146;2023-05-10T12:00:30;18.40;1.00
780;DHT22;373;49.342;8.146;2023-05-10T12:03:00;18.50;1.00
780;DHT22;373;49.342;8.146;2023-05-10T12:05:28;18.80;1.00
780;DHT22;373;49.342;8.146;2023-05-10T12:08:11;18.50;99.90
780;DHT22;373;49.342;8.146;2023-05-10T12:10:38;18.10;99.90
780;DHT22;373;49.342;8.146;2023-05-10T12:13:06;18.40;99.90
780;DHT22;373;49.342;8.146;2023-05-10T12:15:37;18.60;99.90
780;DHT22;373;49.342;8.146;2023-05-10T12:18:07;18.60;99.90
780;DHT22;373;49.342;8.146;2023-05-10T12:20:36;19.10;99.90
780;DHT22;373;49.342;8.146;2023-05-10T12:23:03;19.30;99.90
780;DHT22;373;49.342;8.146;2023-05-10T12:25:33;19.70;99.90
780;DHT22;373;49.342;8.146;2023-05-10T12:28:03;19.80;99.90
780;DHT22;373;49.342;8.146;2023-05-10T12:30:32;19.30;99.90
780;DHT22;373;49.342;8.146;2023-05-10T12:33:01;18.90;99.90
780;DHT22;373;49.342;8.146;2023-05-10T12:35:42;18.90;99.90
780;DHT22;373;49.342;8.146;2023-05-10T12:38:27;19.00;99.90
780;DHT22;373;49.342;8.146;2023-05-10T12:40:56;18.90;99.90
780;DHT22;373;49.342;8.146;2023-05-10T12:43:23;19.00;99.90
780;DHT22;373;49.342;8.146;2023-05-10T12:45:50;19.20;99.90
780;DHT22;373;49.342;8.146;2023-05-10T12:48:17;19.30;99.90
780;DHT22;373;49.342;8.146;2023-05-10T12:50:46;19.30;99.90
780;DHT22;373;49.342;8.146;2023-05-10T12:53:14;19.50;99.90
780;DHT22;373;49.342;8.146;2023-05-10T12:55:42;19.80;99.90
780;DHT22;373;49.342;8.146;2023-05-10T12:58:09;20.00;99.90
780;DHT22;373;49.342;8.146;2023-05-10T13:00:37;19.70;99.90
780;DHT22;373;49.342;8.146;2023-05-10T13:03:04;19.80;99.90
780;DHT22;373;49.342;8.146;2023-05-10T13:05:32;19.90;99.90
780;DHT22;373;49.342;8.146;2023-05-10T13:08:01;19.80;99.90
780;DHT22;373;49.342;8.146;2023-05-10T13:10:29;19.50;99.90
780;DHT22;373;49.342;8.146;2023-05-10T13:12:57;19.50;99.90
780;DHT22;373;49.342;8.146;2023-05-10T13:15:25;19.40;99.90
780;DHT22;373;49.342;8.146;2023-05-10T13:17:54;19.10;99.90
780;DHT22;373;49.342;8.146;2023-05-10T13:20:21;19.00;99.90
780;DHT22;373;49.342;8.146;2023-05-10T13:22:50;19.10;99.90
780;DHT22;373;49.342;8.146;2023-05-10T13:25:18;19.20;99.90
780;DHT22;373;49.342;8.146;2023-05-10T13:27:46;19.30;99.90
780;DHT22;373;49.342;8.146;2023-05-10T13:30:13;19.70;99.90
780;DHT22;373;49.342;8.146;2023-05-10T13:32:40;19.50;99.90
780;DHT22;373;49.342;8.146;2023-05-10T13:35:08;19.50;99.90
780;DHT22;373;49.342;8.146;2023-05-10T13:37:35;19.60;99.90
780;DHT22;373;49.342;8.146;2023-05-10T13:40:03;19.80;99.90
780;DHT22;373;49.342;8.146;2023-05-10T13:42:33;19.80;99.90
780;DHT22;373;49.342;8.146;2023-05-10T13:45:00;19.20;99.90
780;DHT22;373;49.342;8.146;2023-05-10T13:47:28;19.00;99.90
780;DHT22;373;49.342;8.146;2023-05-10T13:49:55;19.30;99.90
780;DHT22;373;49.342;8.146;2023-05-10T13:52:23;19.60;99.90
780;DHT22;373;49.342;8.146;2023-05-10T13:54:50;19.50;99.90
780;DHT22;373;49.342;8.146;2023-05-10T13:57:22;19.60;99.90
780;DHT22;373;49.342;8.146;2023-05-10T13:59:51;19.30;99.90
780;DHT22;373;49.342;8.146;2023-05-10T14:02:19;19.50;99.90
780;DHT22;373;49.342;8.146;2023-05-10T14:04:46;19.40;99.90
780;DHT22;373;49.342;8.146;2023-05-10T14:07:14;19.40;99.90
780;DHT22;373;49.342;8.146;2023-05-10T14:09:41;19.60;99.90
780;DHT22;373;49.342;8.146;2023-05-10T14:12:08;19.90;99.90
780;DHT22;373;49.342;8.146;2023-05-10T14:14:36;20.50;99.90
780;DHT22;373;49.342;8.146;2023-05-10T14:17:04;20.70;99.90
780;DHT22;373;49.342;8.146;2023-05-10T14:19:31;20.30;99.90
780;DHT22;373;49.342;8.146;2023-05-10T14:22:00;20.10;99.90
780;DHT22;373;49.342;8.146;2023-05-10T14:24:27;20.10;99.90
780;DHT22;373;49.342;8.146;2023-05-10T14:26:54;20.40;99.90
780;DHT22;373;49.342;8.146;2023-05-10T14:29:22;20.70;99.90
780;DHT22;373;49.342;8.146;2023-05-10T14:31:49;20.80;99.90
780;DHT22;373;49.342;8.146;2023-05-10T14:34:18;20.70;99.90
780;DHT22;373;49.342;8.146;2023-05-10T14:36:45;20.50;99.90
780;DHT22;373;49.342;8.146;2023-05-10T14:39:13;20.40;99.90
780;DHT22;373;49.342;8.146;2023-05-10T14:41:41;20.40;99.90
780;DHT22;373;49.342;8.146;2023-05-10T14:44:10;20.40;99.90
780;DHT22;373;49.342;8.146;2023-05-10T14:46:37;20.80;99.90
780;DHT22;373;49.342;8.146;2023-05-10T14:49:05;20.90;99.90
780;DHT22;373;49.342;8.146;2023-05-10T14:51:34;20.90;99.90
780;DHT22;373;49.342;8.146;2023-05-10T14:54:02;21.20;99.90
780;DHT22;373;49.342;8.146;2023-05-10T14:56:29;21.30;99.90
780;DHT22;373;49.342;8.146;2023-05-10T14:58:57;21.30;99.90
780;DHT22;373;49.342;8.146;2023-05-10T15:01:25;21.00;99.90
780;DHT22;373;49.342;8.146;2023-05-10T15:03:52;20.90;99.90
780;DHT22;373;49.342;8.146;2023-05-10T15:06:23;20.90;99.90
780;DHT22;373;49.342;8.146;2023-05-10T15:08:58;21.00;99.90
780;DHT22;373;49.342;8.146;2023-05-10T15:11:25;21.10;99.90
780;DHT22;373;49.342;8.146;2023-05-10T15:13:53;21.30;99.90
780;DHT22;373;49.342;8.146;2023-05-10T15:16:23;21.40;99.90
780;DHT22;373;49.342;8.146;2023-05-10T15:18:52;21.10;99.90
780;DHT22;373;49.342;8.146;2023-05-10T15:21:20;20.80;99.90
780;DHT22;373;49.342;8.146;2023-05-10T15:23:47;20.50;99.90
780;DHT22;373;49.342;8.146;2023-05-10T15:26:16;20.60;99.90
780;DHT22;373;49.342;8.146;2023-05-10T15:28:43;20.60;99.90
780;DHT22;373;49.342;8.146;2023-05-10T15:31:10;20.60;99.90
780;DHT22;373;49.342;8.146;2023-05-10T15:33:37;20.20;99.90
780;DHT22;373;49.342;8.146;2023-05-10T15:36:05;19.60;99.90
780;DHT22;373;49.342;8.146;2023-05-10T15:38:32;19.50;99.90
780;DHT22;373;49.342;8.146;2023-05-10T15:41:00;19.40;99.90
780;DHT22;373;49.342;8.146;2023-05-10T15:43:28;19.40;99.90
780;DHT22;373;49.342;8.146;2023-05-10T15:45:56;19.50;99.90
780;DHT22;373;49.342;8.146;2023-05-10T15:48:24;19.80;99.90
780;DHT22;373;49.342;8.146;2023-05-10T15:50:51;20.00;99.90
780;DHT22;373;49.342;8.146;2023-05-10T15:53:18;19.90;99.90
780;DHT22;373;49.342;8.146;2023-05-10T15:55:45;20.20;99.90
780;DHT22;373;49.342;8.146;2023-05-10T15:58:12;20.20;99.90
780;DHT22;373;49.342;8.146;2023-05-10T16:00:41;20.40;99.90
780;DHT22;373;49.342;8.146;2023-05-10T16:03:08;20.90;99.90
780;DHT22;373;49.342;8.146;2023-05-10T16:05:35;20.90;99.90
780;DHT22;373;49.342;8.146;2023-05-10T16:08:03;20.50;99.90
780;DHT22;373;49.342;8.146;2023-05-10T16:10:31;20.20;99.90
780;DHT22;373;49.342;8.146;2023-05-10T16:12:59;20.10;99.90
780;DHT22;373;49.342;8.146;2023-05-10T16:15:27;20.20;99.90
780;DHT22;373;49.342;8.146;2023-05-10T16:17:56;19.90;99.90
780;DHT22;373;49.342;8.146;2023-05-10T16:20:23;19.90;99.90
780;DHT22;373;49.342;8.146;2023-05-10T16:22:50;20.10;99.90
780;DHT22;373;49.342;8.146;2023-05-10T16:25:18;20.20;99.90
780;DHT22;373;49.342;8.146;2023-05-10T16:27:46;20.10;99.90
780;DHT22;373;49.342;8.146;2023-05-10T16:30:14;20.10;99.90
780;DHT22;373;49.342;8.146;2023-05-10T16:32:41;19.70;99.90
780;DHT22;373;49.342;8.146;2023-05-10T16:35:15;19.50;99.90
780;DHT22;373;49.342;8.146;2023-05-10T16:37:42;19.30;99.90
780;DHT22;373;49.342;8.146;2023-05-10T16:40:10;19.30;99.90
780;DHT22;373;49.342;8.146;2023-05-10T16:42:37;19.20;99.90
780;DHT22;373;49.342;8.146;2023-05-10T16:45:08;19.00;99.90
780;DHT22;373;49.342;8.146;2023-05-10T16:47:36;19.10;99.90
780;DHT22;373;49.342;8.146;2023-05-10T16:50:05;18.80;99.90
780;DHT22;373;49.342;8.146;2023-05-10T16:52:36;18.70;99.90
780;DHT22;373;49.342;8.146;2023-05-10T16:55:04;18.60;99.90